Time;durP1;ratioP1;P1;durP2;ratioP2;P2;SDS_P1;SDS_P2;PMS_P1;PMS_P2;Temp;Humidity;BMP_temperature;BMP_pressure;BME280_temperature;BME280_humidity;BME280_pressure;Samples;Min_cycle;Max_cycle;Signal;HPM_P1;HPM_P2
2023/07/07 00:00:15;;;;;;;;;;;;;;;24.65;61.13;101429.53;4921059;28;19934;-83
2023/07/07 00:02:45;;;;;;;;;;;;;;;24.55;60.92;101401.97;4893425;29;19968;-82
2023/07/07 00:05:12;;;;;;;;;;;;;;;24.89;61.23;101455.19;4886521;29;19926;-82
2023/07/07 00:07:43;;;;;;;;;;;;;;;24.82;61.58;101452.50;4898121;29;20263;-82
2023/07/07 00:10:17;;;;;;;;;;;;;;;24.37;61.67;101391.69;4912553;29;20010;-82
2023/07/07 00:12:44;;;;;;;;;;;;;;;24.74;61.95;101453.53;4908370;29;20309;-80
2023/07/07 00:15:11;;;;;;;;;;;;;;;24.77;61.82;101460.44;4900507;28;20017;-82
2023/07/07 00:17:41;;;;;;;;;;;;;;;24.74;61.88;101466.28;4917399;29;20548;-81
2023/07/07 00:20:10;;;;;;;;;;;;;;;24.83;61.26;101456.88;4890557;28;19929;-80
2023/07/07 00:22:37;;;;;;;;;;;;;;;24.85;61.47;101462.91;4912342;29;19997;-81
2023/07/07 00:25:04;;;;;;;;;;;;;;;24.87;61.44;101460.84;4900982;29;19922;-81
2023/07/07 00:27:31;;;;;;;;;;;;;;;24.87;61.31;101466.25;4894009;29;20418;-82
2023/07/07 00:29:58;;;;;;;;;;;;;;;24.88;61.28;101472.53;4904145;29;20013;-80
2023/07/07 00:32:24;;;;;;;;;;;;;;;24.80;61.66;101470.88;4908388;29;19970;-80
2023/07/07 00:34:51;;;;;;;;;;;;;;;24.78;61.54;101472.94;4887511;29;20258;-83
2023/07/07 00:37:18;;;;;;;;;;;;;;;24.78;61.69;101472.13;4876376;29;19930;-81
2023/07/07 00:39:44;;;;;;;;;;;;;;;24.74;61.92;101471.72;4854447;29;20449;-81
2023/07/07 00:42:11;;;;;;;;;;;;;;;24.72;62.04;101469.19;4866676;29;19930;-81
2023/07/07 00:45:07;;;;;;;;;;;;;;;24.70;61.90;101465.03;4869009;29;20556;-82
2023/07/07 00:47:50;;;;;;;;;;;;;;;24.77;61.76;101474.00;4844120;29;19923;-83
2023/07/07 00:50:24;;;;;;;;;;;;;;;24.75;61.67;101467.94;4831317;29;20071;-82
2023/07/07 00:53:04;;;;;;;;;;;;;;;24.64;62.17;101469.41;4848266;29;20097;-81
2023/07/07 00:55:33;;;;;;;;;;;;;;;24.61;62.22;101467.09;4859632;29;20501;-82
2023/07/07 00:58:10;;;;;;;;;;;;;;;24.57;62.49;101481.31;4885844;29;20156;-81
2023/07/07 01:00:38;;;;;;;;;;;;;;;24.52;62.79;101474.63;4898416;29;20013;-82
2023/07/07 01:03:11;;;;;;;;;;;;;;;24.52;62.82;101471.91;4873793;29;19950;-82
2023/07/07 01:05:42;;;;;;;;;;;;;;;24.51;62.81;101467.50;4850622;29;19979;-81
2023/07/07 01:08:09;;;;;;;;;;;;;;;24.49;62.98;101482.34;4891851;29;20321;-83
2023/07/07 01:10:38;;;;;;;;;;;;;;;24.49;62.97;101480.47;4885212;29;19930;-82
2023/07/07 01:13:05;;;;;;;;;;;;;;;24.45;62.86;101491.91;4897500;29;20005;-81
2023/07/07 01:15:34;;;;;;;;;;;;;;;24.42;63.06;101484.16;4881116;29;20328;-81
2023/07/07 01:18:18;;;;;;;;;;;;;;;24.15;63.02;101434.47;4897963;29;19957;-83
2023/07/07 01:21:01;;;;;;;;;;;;;;;24.37;63.33;101476.69;4896689;29;20290;-83
2023/07/07 01:23:59;;;;;;;;;;;;;;;24.35;63.36;101483.34;4893612;29;20346;-81
2023/07/07 01:26:28;;;;;;;;;;;;;;;23.96;63.72;101420.69;4914698;28;20029;-83
2023/07/07 01:29:14;;;;;;;;;;;;;;;24.34;63.55;101474.34;4895136;29;19926;-81
2023/07/07 01:31:46;;;;;;;;;;;;;;;24.09;63.29;101436.97;4910673;29;19923;-83
2023/07/07 01:34:17;;;;;;;;;;;;;;;24.08;63.86;101434.47;4889869;29;19934;-83
2023/07/07 01:36:47;;;;;;;;;;;;;;;24.33;63.56;101486.25;4883035;29;19934;-83
2023/07/07 01:39:14;;;;;;;;;;;;;;;24.36;63.46;101475.00;4886845;29;20274;-81
2023/07/07 01:41:44;;;;;;;;;;;;;;;24.34;63.42;101479.78;4870032;29;20393;-82
2023/07/07 01:44:27;;;;;;;;;;;;;;;24.33;63.45;101477.28;4901589;29;19974;-83
2023/07/07 01:46:54;;;;;;;;;;;;;;;24.35;63.46;101481.47;4889092;29;20009;-82
2023/07/07 01:49:24;;;;;;;;;;;;;;;24.33;63.56;101486.25;4888766;29;19967;-81
2023/07/07 01:51:54;;;;;;;;;;;;;;;24.27;63.81;101481.66;4873142;29;19923;-81
2023/07/07 01:54:21;;;;;;;;;;;;;;;24.24;63.82;101482.91;4882654;29;20100;-82
2023/07/07 01:56:48;;;;;;;;;;;;;;;24.25;63.84;101483.75;4891039;29;20327;-82
2023/07/07 01:59:18;;;;;;;;;;;;;;;23.72;63.91;101418.50;4875874;29;19926;-83
2023/07/07 02:02:11;;;;;;;;;;;;;;;24.20;64.00;101491.66;4888132;29;19997;-82
2023/07/07 02:04:37;;;;;;;;;;;;;;;24.21;64.09;101496.06;4932884;29;19929;-81
2023/07/07 02:07:04;;;;;;;;;;;;;;;24.21;64.14;101487.91;4939337;28;19954;-81
2023/07/07 02:09:36;;;;;;;;;;;;;;;23.95;63.67;101451.53;4935138;29;19923;-83
2023/07/07 02:12:04;;;;;;;;;;;;;;;24.20;64.12;101494.34;4934071;29;20001;-82
2023/07/07 02:14:34;;;;;;;;;;;;;;;24.19;63.98;101496.25;4926946;28;19922;-82
2023/07/07 02:17:01;;;;;;;;;;;;;;;24.20;63.73;101499.78;4932241;29;20405;-82
2023/07/07 02:19:28;;;;;;;;;;;;;;;24.18;63.85;101499.19;4928808;29;19922;-83
2023/07/07 02:21:54;;;;;;;;;;;;;;;24.10;64.17;101492.91;4922480;29;19922;-81
2023/07/07 02:24:21;;;;;;;;;;;;;;;24.08;64.41;101494.97;4916572;29;19922;-82
2023/07/07 02:26:51;;;;;;;;;;;;;;;23.82;64.22;101462.34;4905666;29;20085;-82
2023/07/07 02:29:28;;;;;;;;;;;;;;;24.07;64.14;101511.44;4901392;29;19923;-83
2023/07/07 02:31:54;;;;;;;;;;;;;;;24.02;64.34;101512.03;4932730;29;20013;-82
2023/07/07 02:34:21;;;;;;;;;;;;;;;24.00;64.54;101514.13;4907834;29;20593;-82
2023/07/07 02:36:48;;;;;;;;;;;;;;;23.97;64.73;101508.28;4888516;29;19927;-81
2023/07/07 02:39:20;;;;;;;;;;;;;;;24.02;64.36;101506.63;4894302;29;19930;-83
2023/07/07 02:41:48;;;;;;;;;;;;;;;23.95;64.68;101511.19;4894979;29;19941;-82
2023/07/07 02:44:15;;;;;;;;;;;;;;;23.90;64.66;101513.66;4897722;29;19923;-81
2023/07/07 02:46:45;;;;;;;;;;;;;;;23.86;64.84;101518.69;4857601;29;20525;-81
2023/07/07 02:49:14;;;;;;;;;;;;;;;23.53;64.97;101472.41;4879639;29;20174;-82
2023/07/07 02:51:44;;;;;;;;;;;;;;;23.85;64.90;101524.28;4889830;29;19922;-81
2023/07/07 02:54:11;;;;;;;;;;;;;;;23.83;65.04;101535.34;4887201;29;20018;-82
2023/07/07 02:56:38;;;;;;;;;;;;;;;23.85;64.97;101527.00;4899535;29;20171;-82
2023/07/07 02:59:05;;;;;;;;;;;;;;;23.87;64.96;101524.94;4926016;29;20021;-81
2023/07/07 03:01:32;;;;;;;;;;;;;;;23.84;64.65;101525.34;4921885;29;19926;-82
2023/07/07 03:03:59;;;;;;;;;;;;;;;23.84;64.83;101525.34;4920889;29;19922;-83
2023/07/07 03:06:26;;;;;;;;;;;;;;;23.84;64.91;101530.75;4920767;28;20189;-82
2023/07/07 03:08:53;;;;;;;;;;;;;;;23.81;65.10;101531.16;4925530;28;20357;-81
2023/07/07 03:11:20;;;;;;;;;;;;;;;23.80;65.11;101534.91;4924366;29;19926;-81
2023/07/07 03:13:48;;;;;;;;;;;;;;;23.80;65.14;101534.91;4925073;29;20020;-83
2023/07/07 03:16:20;;;;;;;;;;;;;;;23.76;65.26;101541.75;4919234;29;20012;-84
2023/07/07 03:18:54;;;;;;;;;;;;;;;23.67;65.49;101536.50;4906806;29;19929;-83
2023/07/07 03:21:21;;;;;;;;;;;;;;;23.70;65.62;101534.41;4923392;29;20399;-84
2023/07/07 03:23:52;;;;;;;;;;;;;;;23.65;65.62;101538.56;4915303;28;19929;-82
2023/07/07 03:26:19;;;;;;;;;;;;;;;23.32;65.77;101489.56;4903244;28;20057;-82
2023/07/07 03:28:49;;;;;;;;;;;;;;;23.01;65.97;101454.78;4929272;29;19929;-83
2023/07/07 03:31:22;;;;;;;;;;;;;;;23.53;66.15;101545.56;4915451;29;20037;-82
2023/07/07 03:33:50;;;;;;;;;;;;;;;23.55;65.89;101553.53;4882293;29;19927;-82
2023/07/07 03:36:21;;;;;;;;;;;;;;;23.58;65.75;101548.53;4901580;28;19926;-83
2023/07/07 03:38:47;;;;;;;;;;;;;;;23.66;65.31;101561.06;4909960;28;19922;-82
2023/07/07 03:41:16;;;;;;;;;;;;;;;23.63;65.35;101559.59;4918959;29;20118;-80
2023/07/07 03:43:44;;;;;;;;;;;;;;;23.62;65.44;101563.34;4920988;28;19922;-83
2023/07/07 03:46:12;;;;;;;;;;;;;;;23.61;65.61;101561.66;4923559;29;20044;-83
2023/07/07 03:48:39;;;;;;;;;;;;;;;23.63;65.57;101572.31;4923765;29;20350;-82
2023/07/07 03:51:08;;;;;;;;;;;;;;;23.60;65.39;101573.56;4906781;29;20111;-82
2023/07/07 03:53:44;;;;;;;;;;;;;;;23.64;65.20;101571.28;4923909;28;19922;-84
2023/07/07 03:56:15;;;;;;;;;;;;;;;23.61;65.31;101564.38;4899174;29;20288;-82
2023/07/07 03:58:45;;;;;;;;;;;;;;;23.60;65.16;101562.72;4901534;29;20021;-83
2023/07/07 04:01:15;;;;;;;;;;;;;;;23.59;65.40;101566.47;4908378;29;19932;-81
2023/07/07 04:03:47;;;;;;;;;;;;;;;23.53;65.67;101572.69;4895232;29;19926;-81
2023/07/07 04:06:15;;;;;;;;;;;;;;;23.51;65.74;101563.06;4927189;28;19935;-81
2023/07/07 04:08:42;;;;;;;;;;;;;;;23.50;65.73;101564.94;4895328;29;20279;-82
2023/07/07 04:11:19;;;;;;;;;;;;;;;23.49;65.81;101568.69;4908016;29;19942;-82
2023/07/07 04:13:47;;;;;;;;;;;;;;;23.56;65.29;101564.13;4899857;29;20017;-81
2023/07/07 04:16:16;;;;;;;;;;;;;;;23.58;65.58;101559.38;4895780;29;19923;-83
2023/07/07 04:18:44;;;;;;;;;;;;;;;23.57;65.49;101565.84;4914891;28;19953;-81
2023/07/07 04:21:15;;;;;;;;;;;;;;;23.58;65.49;101574.78;4914620;29;20013;-82
2023/07/07 04:23:45;;;;;;;;;;;;;;;23.64;65.32;101574.84;4896575;29;19958;-82
2023/07/07 04:26:12;;;;;;;;;;;;;;;23.67;64.92;101577.16;4897267;29;20209;-82
2023/07/07 04:28:40;;;;;;;;;;;;;;;23.66;65.03;101567.31;4906858;29;19926;-82
2023/07/07 04:31:07;;;;;;;;;;;;;;;23.75;64.39;101567.22;4922511;29;19922;-82
2023/07/07 04:33:35;;;;;;;;;;;;;;;23.80;64.26;101572.88;4924043;29;20386;-83
2023/07/07 04:36:03;;;;;;;;;;;;;;;23.78;63.84;101585.78;4922759;29;20393;-84
2023/07/07 04:38:33;;;;;;;;;;;;;;;23.89;63.70;101582.50;4908903;29;20321;-81
2023/07/07 04:41:13;;;;;;;;;;;;;;;23.93;63.31;101588.34;4903201;29;20411;-83
2023/07/07 04:43:48;;;;;;;;;;;;;;;23.90;63.48;101586.88;4892701;29;20295;-82
2023/07/07 04:46:18;;;;;;;;;;;;;;;23.89;63.69;101593.34;4870618;29;19927;-82
2023/07/07 04:48:48;;;;;;;;;;;;;;;23.89;63.93;101598.78;4899688;29;19923;-83
2023/07/07 04:51:18;;;;;;;;;;;;;;;23.95;63.66;101597.97;4878691;29;19930;-83
2023/07/07 04:53:48;;;;;;;;;;;;;;;23.92;64.18;101603.78;4899171;29;19922;-82
2023/07/07 04:56:23;;;;;;;;;;;;;;;23.67;63.75;101555.47;4898690;29;19929;-84
2023/07/07 04:58:59;;;;;;;;;;;;;;;24.03;63.46;101605.94;4876027;29;20527;-80
2023/07/07 05:01:30;;;;;;;;;;;;;;;23.72;64.09;101559.44;4889273;29;20119;-82
2023/07/07 05:03:59;;;;;;;;;;;;;;;24.12;63.18;101608.47;4909064;29;19929;-81
2023/07/07 05:06:28;;;;;;;;;;;;;;;24.20;62.59;101611.00;4899132;29;19930;-83
2023/07/07 05:08:55;;;;;;;;;;;;;;;24.22;62.39;101608.94;4874490;29;19922;-82
2023/07/07 05:11:27;;;;;;;;;;;;;;;23.94;62.99;101558.34;4904776;29;20231;-84
2023/07/07 05:13:54;;;;;;;;;;;;;;;24.21;62.94;101608.09;4905848;29;19954;-83
2023/07/07 05:16:23;;;;;;;;;;;;;;;24.34;62.31;101614.63;4895486;29;20285;-83
2023/07/07 05:18:50;;;;;;;;;;;;;;;24.36;62.29;101609.84;4907511;29;20319;-81
2023/07/07 05:21:19;;;;;;;;;;;;;;;24.40;62.28;101622.78;4918888;29;19932;-81
2023/07/07 05:23:46;;;;;;;;;;;;;;;24.43;62.20;101626.97;4898094;28;19923;-82
2023/07/07 05:26:15;;;;;;;;;;;;;;;24.49;61.91;101626.19;4897556;29;19937;-83
2023/07/07 05:28:47;;;;;;;;;;;;;;;24.23;61.54;101588.94;4882029;29;20380;-82
2023/07/07 05:31:18;;;;;;;;;;;;;;;24.51;61.97;101627.66;4903940;28;19977;-82
2023/07/07 05:33:45;;;;;;;;;;;;;;;24.48;62.25;101630.78;4916404;29;19927;-82
2023/07/07 05:36:11;;;;;;;;;;;;;;;24.55;61.68;101635.41;4909119;28;20161;-83
2023/07/07 05:38:39;;;;;;;;;;;;;;;24.61;61.62;101642.72;4916883;29;20359;-82
2023/07/07 05:41:06;;;;;;;;;;;;;;;24.73;61.21;101643.78;4915641;29;20040;-84
2023/07/07 05:43:34;;;;;;;;;;;;;;;24.77;60.79;101644.25;4906873;29;19922;-83
2023/07/07 05:46:02;;;;;;;;;;;;;;;24.70;61.95;101649.66;4892300;29;20337;-83
2023/07/07 05:48:30;;;;;;;;;;;;;;;24.82;60.98;101648.00;4893320;29;19929;-82
2023/07/07 05:50:58;;;;;;;;;;;;;;;24.87;60.81;101650.94;4929352;29;19944;-86
2023/07/07 05:53:29;;;;;;;;;;;;;;;24.79;61.21;101648.41;4938717;29;20266;-89
2023/07/07 05:56:03;;;;;;;;;;;;;;;24.93;60.62;101652.00;4933062;29;19922;-86
2023/07/07 05:58:31;;;;;;;;;;;;;;;24.90;61.24;101655.97;4942363;29;19929;-92
2023/07/07 06:00:58;;;;;;;;;;;;;;;24.93;60.56;101647.41;4945002;29;20024;-89
2023/07/07 06:03:35;;;;;;;;;;;;;;;24.97;60.71;101647.81;4930536;29;19919;-91
2023/07/07 06:06:07;;;;;;;;;;;;;;;25.04;60.60;101645.13;4934161;28;20033;-91
2023/07/07 06:08:34;;;;;;;;;;;;;;;25.03;60.41;101646.19;4924157;29;20423;-91
2023/07/07 06:11:03;;;;;;;;;;;;;;;25.06;60.22;101643.03;4922496;29;19922;-92
2023/07/07 06:13:39;;;;;;;;;;;;;;;25.00;60.40;101641.13;4921162;29;19978;-90
2023/07/07 06:16:17;;;;;;;;;;;;;;;25.04;60.49;101645.13;4898675;29;19929;-92
2023/07/07 06:18:44;;;;;;;;;;;;;;;25.05;60.43;101647.63;4917617;29;20064;-93
2023/07/07 06:21:20;;;;;;;;;;;;;;;25.19;60.20;101642.25;4923765;29;20017;-90
2023/07/07 06:23:47;;;;;;;;;;;;;;;25.25;59.39;101646.84;4915349;29;19931;-90
2023/07/07 06:26:21;;;;;;;;;;;;;;;25.25;59.26;101657.72;4927937;29;20006;-92
2023/07/07 06:28:56;;;;;;;;;;;;;;;25.24;59.76;101654.16;4922402;29;20025;-91
2023/07/07 06:31:27;;;;;;;;;;;;;;;25.35;59.59;101647.25;4919028;29;20002;-91
2023/07/07 06:34:02;;;;;;;;;;;;;;;25.49;58.63;101653.53;4916950;29;19923;-92
2023/07/07 06:36:58;;;;;;;;;;;;;;;;;;;;;
2023/07/07 06:40:09;;;;;;;;;;;;;;;25.37;59.38;101656.88;4893244;29;19979;-92
2023/07/07 06:42:56;;;;;;;;;;;;;;;;;;;;;
2023/07/07 06:45:31;;;;;;;;;;;;;;;25.51;58.82;101657.72;4894325;29;19928;-95
2023/07/07 06:48:31;;;;;;;;;;;;;;;25.52;59.28;101658.56;4894550;29;20426;-91
2023/07/07 06:51:09;;;;;;;;;;;;;;;25.56;59.13;101662.53;4894292;29;20394;-90
2023/07/07 06:53:38;;;;;;;;;;;;;;;25.64;58.94;101666.91;4894813;29;19962;-91
2023/07/07 06:56:09;;;;;;;;;;;;;;;25.69;59.06;101670.66;4896236;29;20006;-91
2023/07/07 06:58:39;;;;;;;;;;;;;;;25.62;59.32;101674.44;4903567;29;20474;-92
2023/07/07 07:01:11;;;;;;;;;;;;;;;25.59;59.34;101681.13;4892879;29;19964;-92
2023/07/07 07:03:42;;;;;;;;;;;;;;;25.63;59.18;101676.94;4891961;29;20009;-91
2023/07/07 07:06:47;;;;;;;;;;;;;;;25.70;59.23;101683.19;4894153;29;19924;-93
2023/07/07 07:09:31;;;;;;;;;;;;;;;25.71;60.04;101687.59;4860090;29;20007;-92
2023/07/07 07:12:01;;;;;;;;;;;;;;;25.70;59.87;101688.63;4848104;29;20157;-93
2023/07/07 07:14:31;;;;;;;;;;;;;;;25.76;60.08;101687.81;4855110;29;19970;-91
2023/07/07 07:16:58;;;;;;;;;;;;;;;25.86;59.91;101690.13;4865416;29;20337;-94
2023/07/07 07:19:29;;;;;;;;;;;;;;;25.97;59.44;101688.63;4873261;29;20397;-88
2023/07/07 07:21:56;;;;;;;;;;;;;;;26.02;59.38;101691.56;4889098;29;20372;-86
2023/07/07 07:24:24;;;;;;;;;;;;;;;26.00;59.17;101685.50;4872955;29;20042;-85
2023/07/07 07:26:50;;;;;;;;;;;;;;;26.06;59.47;101686.53;4886919;29;20235;-84
2023/07/07 07:29:46;;;;;;;;;;;;;;;26.26;58.19;101683.75;4871052;29;19966;-88
2023/07/07 07:32:28;;;;;;;;;;;;;;;26.23;58.39;101688.56;4870576;29;19974;-87
2023/07/07 07:34:55;;;;;;;;;;;;;;;26.28;57.89;101692.53;4870006;29;19931;-82
2023/07/07 07:37:21;;;;;;;;;;;;;;;26.23;58.44;101695.91;4851542;29;19946;-85
2023/07/07 07:39:48;;;;;;;;;;;;;;;26.22;58.94;101697.78;4868413;29;20003;-82
2023/07/07 07:42:18;;;;;;;;;;;;;;;26.34;58.44;101700.69;4870798;29;20002;-80
2023/07/07 07:44:44;;;;;;;;;;;;;;;26.41;58.13;101700.69;4873291;29;20018;-80
2023/07/07 07:47:14;;;;;;;;;;;;;;;26.53;57.59;101703.53;4873608;29;19931;-81
2023/07/07 07:49:41;;;;;;;;;;;;;;;26.62;57.04;101708.56;4872359;29;19930;-82
2023/07/07 07:52:08;;;;;;;;;;;;;;;26.61;57.27;101706.91;4869045;29;19939;-80
2023/07/07 07:54:35;;;;;;;;;;;;;;;26.71;56.72;101705.59;4833035;29;19923;-81
2023/07/07 07:57:02;;;;;;;;;;;;;;;26.76;55.11;101703.88;4835990;29;19930;-82
2023/07/07 07:59:31;;;;;;;;;;;;;;;26.77;56.59;101707.44;4856528;29;20296;-83
2023/07/07 08:01:57;;;;;;;;;;;;;;;26.68;57.11;101700.56;4914441;29;20377;-83
2023/07/07 08:04:24;;;;;;;;;;;;;;;26.44;56.64;101653.97;4914383;29;20277;-82
2023/07/07 08:06:53;;;;;;;;;;;;;;;26.84;55.85;101708.25;4900952;29;19929;-82
2023/07/07 08:09:20;;;;;;;;;;;;;;;26.93;55.60;101709.66;4919698;28;19930;-81
2023/07/07 08:11:46;;;;;;;;;;;;;;;27.03;55.36;101715.47;4911425;29;20321;-82
2023/07/07 08:14:14;;;;;;;;;;;;;;;26.94;55.36;101716.78;4911220;29;19927;-83
2023/07/07 08:16:48;;;;;;;;;;;;;;;26.98;54.97;101715.28;4896634;29;19923;-84
2023/07/07 08:19:16;;;;;;;;;;;;;;;27.16;54.54;101714.56;4884812;29;19966;-81
2023/07/07 08:21:46;;;;;;;;;;;;;;;27.23;55.08;101718.09;4889669;29;20214;-81
2023/07/07 08:24:13;;;;;;;;;;;;;;;27.26;54.73;101714.94;4899872;29;19970;-79
2023/07/07 08:26:40;;;;;;;;;;;;;;;27.40;52.92;101715.66;4904782;29;20194;-81
2023/07/07 08:29:07;;;;;;;;;;;;;;;27.25;53.77;101685.16;4903965;28;20254;-82
2023/07/07 08:31:41;;;;;;;;;;;;;;;27.44;53.35;101706.00;4907402;29;20037;-80
2023/07/07 08:34:08;;;;;;;;;;;;;;;27.58;52.75;101711.34;4906606;29;20325;-82
2023/07/07 08:36:35;;;;;;;;;;;;;;;27.59;52.18;101702.94;4894037;29;20043;-82
2023/07/07 08:39:09;;;;;;;;;;;;;;;27.63;51.68;101706.06;4891819;29;19926;-82
2023/07/07 08:41:37;;;;;;;;;;;;;;;27.18;52.06;101638.84;4883840;29;19923;-81
2023/07/07 08:44:04;;;;;;;;;;;;;;;27.68;51.10;101704.31;4877930;29;19949;-81
2023/07/07 08:46:52;;;;;;;;;;;;;;;27.94;51.22;101715.22;4870399;29;20404;-81
2023/07/07 08:49:31;;;;;;;;;;;;;;;27.70;50.59;101666.75;4890985;29;20389;-80
2023/07/07 08:52:11;;;;;;;;;;;;;;;28.10;51.31;101703.72;4921646;29;20158;-82
2023/07/07 08:54:57;;;;;;;;;;;;;;;28.23;50.73;101697.28;4895491;29;20368;-83
2023/07/07 08:57:27;;;;;;;;;;;;;;;28.16;49.97;101708.28;4924025;29;20268;-81
2023/07/07 09:00:18;;;;;;;;;;;;;;;28.07;50.42;101710.47;4928272;28;20200;-82
2023/07/07 09:02:51;;;;;;;;;;;;;;;28.21;49.80;101705.72;4905497;29;19922;-78
2023/07/07 09:05:37;;;;;;;;;;;;;;;28.24;49.78;101699.78;4892690;28;19922;-82
2023/07/07 09:08:08;;;;;;;;;;;;;;;27.98;49.07;101656.41;4869770;29;20168;-82
2023/07/07 09:10:46;;;;;;;;;;;;;;;28.22;48.38;101699.19;4896866;29;19927;-82
2023/07/07 09:13:17;;;;;;;;;;;;;;;28.30;48.12;101701.63;4874326;29;20169;-85
2023/07/07 09:15:52;;;;;;;;;;;;;;;28.62;47.57;101698.75;4890717;29;19923;-84
2023/07/07 09:18:22;;;;;;;;;;;;;;;28.66;46.35;101702.66;4866469;29;20259;-84
2023/07/07 09:20:55;;;;;;;;;;;;;;;28.81;46.00;101694.06;4892624;29;19950;-84
2023/07/07 09:23:24;;;;;;;;;;;;;;;28.84;45.86;101692.78;4923152;29;20353;-83
2023/07/07 09:25:56;;;;;;;;;;;;;;;28.74;46.31;101699.63;4862532;29;20653;-83
2023/07/07 09:28:27;;;;;;;;;;;;;;;28.75;46.93;101698.56;4887466;29;19927;-83
2023/07/07 09:30:58;;;;;;;;;;;;;;;28.79;46.88;101700.81;4849126;29;19930;-83
2023/07/07 09:33:26;;;;;;;;;;;;;;;28.80;46.49;101700.59;4893260;29;20016;-83
2023/07/07 09:36:11;;;;;;;;;;;;;;;28.87;47.03;101697.78;4911959;29;20329;-83
2023/07/07 09:38:52;;;;;;;;;;;;;;;29.12;46.69;101695.72;4916345;28;20385;-84
2023/07/07 09:41:21;;;;;;;;;;;;;;;29.18;46.62;101693.97;4906809;28;20009;-82
2023/07/07 09:43:57;;;;;;;;;;;;;;;29.31;46.48;101687.47;4922839;28;19930;-82
2023/07/07 09:46:39;;;;;;;;;;;;;;;29.33;46.72;101699.00;4922705;29;19923;-82
2023/07/07 09:49:17;;;;;;;;;;;;;;;29.45;46.66;101683.44;4904312;29;20022;-82
2023/07/07 09:51:50;;;;;;;;;;;;;;;29.54;46.89;101695.72;4920498;29;20017;-83
2023/07/07 09:54:17;;;;;;;;;;;;;;;29.35;46.14;101691.41;4907769;28;20361;-83
2023/07/07 09:56:59;;;;;;;;;;;;;;;29.35;46.32;101689.50;4910028;29;20180;-83
2023/07/07 09:59:28;;;;;;;;;;;;;;;29.40;46.08;101686.06;4907525;29;20317;-83
2023/07/07 10:01:56;;;;;;;;;;;;;;;29.48;45.13;101684.88;4905601;29;20026;-82
2023/07/07 10:04:29;;;;;;;;;;;;;;;29.62;45.58;101689.03;4914771;29;20025;-83
2023/07/07 10:07:00;;;;;;;;;;;;;;;29.87;45.05;101697.03;4905580;29;19933;-83
2023/07/07 10:09:31;;;;;;;;;;;;;;;30.24;43.99;101691.25;4878975;29;20204;-81
2023/07/07 10:11:58;;;;;;;;;;;;;;;30.15;43.88;101704.53;4909293;29;19922;-84
2023/07/07 10:14:29;;;;;;;;;;;;;;;30.31;44.14;101689.25;4895366;28;20424;-82
2023/07/07 10:16:59;;;;;;;;;;;;;;;30.54;43.44;101695.75;4921015;29;20416;-84
2023/07/07 10:19:26;;;;;;;;;;;;;;;30.56;43.02;101693.59;4914749;28;20364;-83
2023/07/07 10:21:55;;;;;;;;;;;;;;;30.36;42.39;101656.50;4863742;29;19923;-82
2023/07/07 10:24:21;;;;;;;;;;;;;;;30.62;42.80;101689.88;4879876;29;19970;-82
2023/07/07 10:26:50;;;;;;;;;;;;;;;30.75;42.16;101695.06;4899993;29;19922;-83
2023/07/07 10:29:21;;;;;;;;;;;;;;;30.93;41.67;101682.28;4911351;29;20193;-82
2023/07/07 10:31:59;;;;;;;;;;;;;;;31.04;41.70;101684.09;4889606;29;20585;-83
2023/07/07 10:34:37;;;;;;;;;;;;;;;30.88;41.69;101652.88;4872831;29;19922;-83
2023/07/07 10:37:15;;;;;;;;;;;;;;;31.27;42.11;101683.16;4902970;29;20022;-83
2023/07/07 10:39:44;;;;;;;;;;;;;;;30.92;41.91;101643.03;4885923;29;19927;-82
2023/07/07 10:42:11;;;;;;;;;;;;;;;31.34;42.10;101678.31;4923383;29;19925;-83
2023/07/07 10:44:38;;;;;;;;;;;;;;;31.10;41.82;101600.88;4924740;29;20008;-82
2023/07/07 10:47:05;;;;;;;;;;;;;;;31.64;41.31;101678.00;4927733;29;19958;-82
2023/07/07 10:49:52;;;;;;;;;;;;;;;32.09;40.27;101679.75;4918854;29;19922;-83
2023/07/07 10:52:32;;;;;;;;;;;;;;;32.07;39.59;101676.44;4925596;28;19937;-84
2023/07/07 10:55:02;;;;;;;;;;;;;;;32.14;39.72;101682.56;4936859;28;20296;-82
2023/07/07 10:57:40;;;;;;;;;;;;;;;32.35;39.31;101678.13;4918077;29;20012;-81
2023/07/07 11:00:25;;;;;;;;;;;;;;;32.37;39.18;101672.41;4913776;29;20028;-82
2023/07/07 11:03:34;;;;;;;;;;;;;;;32.62;38.85;101676.56;4933573;28;20022;-84
2023/07/07 11:06:13;;;;;;;;;;;;;;;32.60;38.57;101678.72;4858636;29;19995;-84
2023/07/07 11:08:45;;;;;;;;;;;;;;;32.64;38.81;101679.88;4887346;29;20329;-83
2023/07/07 11:11:16;;;;;;;;;;;;;;;32.84;37.71;101674.56;4864912;29;20380;-84
2023/07/07 11:13:52;;;;;;;;;;;;;;;33.07;38.24;101672.63;4884479;29;19974;-84
2023/07/07 11:16:34;;;;;;;;;;;;;;;33.02;37.67;101675.31;4928919;29;20275;-82
2023/07/07 11:19:19;;;;;;;;;;;;;;;33.20;38.13;101669.44;4890322;28;19930;-84
2023/07/07 11:21:47;;;;;;;;;;;;;;;33.35;36.55;101669.56;4879800;29;20433;-84
2023/07/07 11:24:21;;;;;;;;;;;;;;;33.50;36.43;101657.84;4877239;29;19923;-83
2023/07/07 11:27:17;;;;;;;;;;;;;;;33.60;35.29;101673.63;4887502;29;20482;-82
2023/07/07 11:29:50;;;;;;;;;;;;;;;33.72;35.71;101666.00;4913026;29;20377;-82
2023/07/07 11:32:29;;;;;;;;;;;;;;;33.71;36.30;101663.50;4916566;29;20020;-81
2023/07/07 11:35:05;;;;;;;;;;;;;;;33.88;35.54;101666.91;4920082;29;20365;-81
2023/07/07 11:37:50;;;;;;;;;;;;;;;34.02;36.44;101656.22;4894899;29;19986;-82
2023/07/07 11:40:20;;;;;;;;;;;;;;;34.14;36.02;101659.63;4896802;29;19922;-80
2023/07/07 11:43:01;;;;;;;;;;;;;;;34.22;35.73;101656.34;4899924;29;19927;-80
2023/07/07 11:45:35;;;;;;;;;;;;;;;34.02;35.21;101606.66;4915708;28;20009;-82
2023/07/07 11:48:04;;;;;;;;;;;;;;;34.48;35.23;101653.66;4917832;29;19938;-82
2023/07/07 11:50:46;;;;;;;;;;;;;;;34.50;35.56;101651.47;4929759;29;19923;-82
2023/07/07 11:53:33;;;;;;;;;;;;;;;34.55;34.85;101665.25;4914069;28;20122;-82
2023/07/07 11:56:21;;;;;;;;;;;;;;;34.71;34.77;101657.03;4906820;28;20440;-86
2023/07/07 11:58:55;;;;;;;;;;;;;;;34.94;34.23;101655.72;4908862;28;19987;-83
2023/07/07 12:01:25;;;;;;;;;;;;;;;35.15;33.38;101673.09;4909353;29;19950;-83
2023/07/07 12:03:55;;;;;;;;;;;;;;;35.14;32.52;101665.94;4931771;29;19922;-82
2023/07/07 12:06:45;;;;;;;;;;;;;;;35.27;32.60;101668.13;4891748;29;20144;-83
2023/07/07 12:09:19;;;;;;;;;;;;;;;35.33;32.33;101663.47;4907231;28;20210;-82
2023/07/07 12:11:54;;;;;;;;;;;;;;;35.25;32.29;101632.56;4905318;29;19994;-84
2023/07/07 12:14:36;;;;;;;;;;;;;;;35.43;31.97;101631.13;4891290;29;19986;-83
2023/07/07 12:17:03;;;;;;;;;;;;;;;35.71;31.27;101662.03;4897994;29;19933;-82
2023/07/07 12:19:31;;;;;;;;;;;;;;;35.89;31.31;101661.41;4879704;29;20006;-84
2023/07/07 12:22:00;;;;;;;;;;;;;;;36.05;31.46;101659.44;4900355;29;20301;-82
2023/07/07 12:24:29;;;;;;;;;;;;;;;36.10;30.72;101661.38;4876579;29;20416;-83
2023/07/07 12:27:11;;;;;;;;;;;;;;;36.43;30.49;101661.75;4902138;29;19943;-82
2023/07/07 12:29:40;;;;;;;;;;;;;;;36.72;31.14;101651.63;4880694;29;19950;-82
2023/07/07 12:32:11;;;;;;;;;;;;;;;36.73;31.08;101653.31;4881005;29;20018;-82
2023/07/07 12:34:46;;;;;;;;;;;;;;;36.52;30.61;101588.97;4880936;29;19927;-83
2023/07/07 12:37:22;;;;;;;;;;;;;;;37.00;30.13;101655.56;4899688;29;20033;-82
2023/07/07 12:39:55;;;;;;;;;;;;;;;36.84;30.80;101653.22;4892194;29;19923;-85
2023/07/07 12:42:26;;;;;;;;;;;;;;;36.49;31.38;101647.63;4907314;29;20271;-83
2023/07/07 12:44:53;;;;;;;;;;;;;;;36.59;31.26;101657.81;4908386;28;19927;-83
2023/07/07 12:47:30;;;;;;;;;;;;;;;36.72;30.79;101657.16;4924681;29;19981;-84
2023/07/07 12:50:05;;;;;;;;;;;;;;;36.84;30.16;101659.56;4925622;28;20142;-82
2023/07/07 12:52:39;;;;;;;;;;;;;;;36.98;30.13;101659.75;4919111;29;20301;-83
2023/07/07 12:55:19;;;;;;;;;;;;;;;37.20;29.73;101660.13;4916744;29;19961;-82
2023/07/07 12:58:13;;;;;;;;;;;;;;;37.41;29.26;101658.00;4921125;29;19982;-83
2023/07/07 13:00:42;;;;;;;;;;;;;;;37.54;28.90;101648.19;4875609;29;20422;-82
2023/07/07 13:03:16;;;;;;;;;;;;;;;37.70;29.21;101643.34;4927564;28;19926;-82